Time;durP1;ratioP1;P1;durP2;ratioP2;P2;SDS_P1;SDS_P2;PMS_P1;PMS_P2;Temp;Humidity;BMP_temperature;BMP_pressure;BME280_temperature;BME280_humidity;BME280_pressure;Samples;Min_cycle;Max_cycle;Signal;HPM_P1;HPM_P2
2022/06/03 00:01:32;;;;;;;8.73;7.00;;;;;;;13.39;63.03;101932.03;5063451;28;20491;-75
2022/06/03 00:04:28;;;;;;;7.10;6.40;;;;;;;13.26;63.58;101934.75;5058664;28;20051;-75
2022/06/03 00:07:05;;;;;;;7.70;6.20;;;;;;;13.35;63.31;101938.44;5063328;28;20047;-76
2022/06/03 00:10:08;;;;;;;7.57;6.38;;;;;;;13.29;63.23;101934.50;5062549;28;20029;-77
2022/06/03 00:12:57;;;;;;;7.43;6.60;;;;;;;13.19;63.41;101938.75;5042425;28;20025;-75
2022/06/03 00:15:32;;;;;;;7.95;6.57;;;;;;;13.00;64.30;101928.00;5061784;28;20449;-76
2022/06/03 00:18:26;;;;;;;8.45;6.57;;;;;;;13.12;63.29;101927.09;5056980;28;20028;-75
2022/06/03 00:21:02;;;;;;;7.20;6.38;;;;;;;13.06;63.90;101926.72;5067462;28;20123;-76
2022/06/03 00:23:53;;;;;;;7.93;7.07;;;;;;;13.17;63.32;101930.19;5068807;28;20476;-76
2022/06/03 00:26:27;;;;;;;7.72;6.75;;;;;;;13.04;63.92;101929.44;5067720;28;20032;-75
2022/06/03 00:29:22;;;;;;;8.27;7.47;;;;;;;13.09;63.83;101932.53;5062190;28;20036;-76
2022/06/03 00:32:02;;;;;;;9.05;6.93;;;;;;;13.04;63.93;101937.25;5049901;28;20025;-76
2022/06/03 00:34:36;;;;;;;8.27;7.00;;;;;;;12.98;64.42;101929.91;5065928;28;20026;-77
2022/06/03 00:37:22;;;;;;;8.30;7.05;;;;;;;12.85;64.19;101929.16;5042879;28;20530;-77
2022/06/03 00:39:58;;;;;;;7.97;6.82;;;;;;;12.88;64.70;101934.13;5068928;28;20052;-76
2022/06/03 00:42:35;;;;;;;8.05;6.80;;;;;;;12.85;64.62;101923.94;5068895;28;20058;-76
2022/06/03 00:45:22;;;;;;;8.10;7.03;;;;;;;12.84;64.37;101933.50;5060550;28;20032;-76
2022/06/03 00:48:13;;;;;;;7.78;6.75;;;;;;;12.86;63.81;101925.63;5060352;28;20021;-75
2022/06/03 00:51:09;;;;;;;8.82;7.13;;;;;;;12.81;64.40;101922.50;5055908;28;20275;-76
2022/06/03 00:54:12;;;;;;;8.10;7.20;;;;;;;12.89;64.00;101920.16;5062457;28;20025;-76
2022/06/03 00:56:59;;;;;;;8.20;7.32;;;;;;;12.80;64.53;101910.44;5056974;28;20115;-76
2022/06/03 00:59:53;;;;;;;8.68;7.30;;;;;;;12.77;65.65;101920.13;5067770;28;20510;-75
2022/06/03 01:02:56;;;;;;;7.85;7.05;;;;;;;12.71;65.29;101917.97;5061558;28;20028;-75
2022/06/03 01:05:34;;;;;;;9.18;7.35;;;;;;;12.68;64.92;101915.59;5063153;28;20115;-75
2022/06/03 01:08:18;;;;;;;8.68;7.30;;;;;;;12.61;65.52;101911.75;5068729;28;20036;-76
2022/06/03 01:11:15;;;;;;;8.15;7.32;;;;;;;12.54;66.80;101913.16;5055471;28;20036;-76
2022/06/03 01:14:02;;;;;;;8.05;7.28;;;;;;;12.59;65.99;101903.25;5049344;28;20365;-76
2022/06/03 01:16:53;;;;;;;8.73;7.10;;;;;;;12.60;66.29;101894.50;5068291;28;20127;-76
2022/06/03 01:19:55;;;;;;;7.53;6.72;;;;;;;12.59;66.63;101898.03;5059732;28;20028;-75
2022/06/03 01:22:32;;;;;;;7.78;6.97;;;;;;;12.61;66.24;101900.53;5055265;28;20799;-75
2022/06/03 01:25:22;;;;;;;8.10;7.13;;;;;;;12.53;66.70;101903.69;5066965;28;20032;-75
2022/06/03 01:28:23;;;;;;;7.70;6.90;;;;;;;12.65;66.06;101894.16;5061979;28;20067;-75
2022/06/03 01:31:19;;;;;;;8.50;7.22;;;;;;;12.59;66.33;101902.41;5065587;28;20025;-76
2022/06/03 01:34:17;;;;;;;8.40;7.53;;;;;;;12.51;66.87;101897.78;5062731;28;20115;-75
2022/06/03 01:37:20;;;;;;;8.25;7.45;;;;;;;12.56;67.00;101898.28;5056568;28;20024;-75
2022/06/03 01:40:28;;;;;;;8.05;7.32;;;;;;;12.51;66.57;101895.19;5054171;28;20330;-76
2022/06/03 01:43:24;;;;;;;8.20;7.40;;;;;;;12.50;67.09;101888.28;5052370;28;20053;-76
2022/06/03 01:46:15;;;;;;;10.00;7.55;;;;;;;12.42;67.10;101885.44;5050704;28;20033;-76
2022/06/03 01:49:06;;;;;;;8.18;6.90;;;;;;;12.40;68.48;101887.31;5045277;28;20063;-75
2022/06/03 01:51:34;;;;;;;8.50;7.30;;;;;;;12.47;67.59;101889.34;5015775;28;20050;-76
2022/06/03 01:54:34;;;;;;;7.93;7.05;;;;;;;12.57;66.78;101889.53;5055085;28;20028;-76
2022/06/03 01:57:37;;;;;;;8.35;7.53;;;;;;;12.48;67.74;101874.56;5064089;28;20040;-76
2022/06/03 02:00:27;;;;;;;8.73;7.82;;;;;;;12.44;67.97;101883.53;5064875;28;20054;-76
2022/06/03 02:02:58;;;;;;;8.55;7.72;;;;;;;12.38;67.99;101873.56;5060738;28;20578;-76
2022/06/03 02:05:39;;;;;;;8.13;7.32;;;;;;;12.40;68.69;101871.72;5066345;28;20502;-75
2022/06/03 02:08:23;;;;;;;8.60;7.63;;;;;;;12.36;68.69;101857.25;5064294;28;20108;-76
2022/06/03 02:10:54;;;;;;;9.52;7.32;;;;;;;12.44;68.08;101858.38;5057532;28;20032;-76
2022/06/03 02:13:28;;;;;;;8.38;7.30;;;;;;;12.41;68.41;101858.59;5060406;28;20095;-76
2022/06/03 02:16:05;;;;;;;8.48;7.63;;;;;;;12.42;68.48;101859.41;5066183;28;20073;-78
2022/06/03 02:18:43;;;;;;;9.50;7.60;;;;;;;12.33;68.75;101854.88;5064217;28;20036;-76
2022/06/03 02:21:15;;;;;;;8.23;7.30;;;;;;;12.42;68.63;101862.00;5052684;28;20464;-76
2022/06/03 02:23:59;;;;;;;9.13;7.65;;;;;;;12.40;68.86;101866.50;5065917;28;20134;-76
2022/06/03 02:26:58;;;;;;;8.13;7.32;;;;;;;12.34;69.34;101864.34;5061452;28;20028;-76
2022/06/03 02:32:58;;;;;;;7.88;7.07;;;;;;;12.39;68.74;101863.06;5058716;28;20044;-76
2022/06/03 02:35:39;;;;;;;8.20;7.40;;;;;;;12.27;69.03;101857.91;5054136;28;20029;-75
2022/06/03 02:38:29;;;;;;;8.13;7.32;;;;;;;12.34;68.62;101852.19;5065775;28;20025;-76
2022/06/03 02:41:34;;;;;;;8.55;7.47;;;;;;;12.28;68.69;101852.63;5058683;28;20044;-76
2022/06/03 02:44:23;;;;;;;9.00;7.78;;;;;;;12.25;69.52;101852.00;5055185;28;20481;-75
2022/06/03 02:47:06;;;;;;;8.32;7.28;;;;;;;12.23;69.26;101850.34;5062496;28;20479;-76
2022/06/03 02:49:31;;;;;;;8.13;7.22;;;;;;;12.12;69.86;101845.09;5064648;28;20036;-76
2022/06/03 02:52:14;;;;;;;8.85;7.95;;;;;;;12.20;69.44;101840.16;5065757;28;20433;-76
2022/06/03 02:55:31;;;;;;;10.40;7.85;;;;;;;12.19;69.48;101846.28;5050534;28;20543;-75
2022/06/03 02:58:34;;;;;;;9.00;7.88;;;;;;;12.16;69.86;101836.13;5007933;28;20072;-75
2022/06/03 03:01:28;;;;;;;8.82;7.32;;;;;;;12.17;69.66;101840.38;5062897;28;20043;-75
2022/06/03 03:04:08;;;;;;;8.20;7.40;;;;;;;12.11;69.48;101846.03;5057242;28;20037;-76
2022/06/03 03:07:15;;;;;;;9.52;7.40;;;;;;;12.14;69.88;101840.59;5065591;28;20528;-76
2022/06/03 03:10:05;;;;;;;8.50;7.57;;;;;;;12.11;69.94;101835.63;5064872;28;20033;-78
2022/06/03 03:12:54;;;;;;;8.77;7.85;;;;;;;12.04;69.82;101843.97;5066648;28;20043;-75
2022/06/03 03:15:35;;;;;;;9.07;8.18;;;;;;;11.98;70.04;101829.63;5059126;28;20048;-76
2022/06/03 03:18:38;;;;;;;8.50;7.60;;;;;;;12.10;69.35;101844.38;5052165;28;20059;-76
2022/06/03 03:21:32;;;;;;;8.38;7.47;;;;;;;12.03;70.26;101843.13;5058528;28;20087;-76
2022/06/03 03:24:01;;;;;;;8.30;7.40;;;;;;;12.05;69.64;101841.28;5033816;28;20128;-75
2022/06/03 03:26:54;;;;;;;9.13;7.88;;;;;;;12.05;69.73;101846.47;5063776;28;20043;-76
2022/06/03 03:29:58;;;;;;;8.50;7.70;;;;;;;11.97;70.63;101843.56;5059125;28;20020;-76
2022/06/03 03:32:33;;;;;;;8.65;7.75;;;;;;;12.01;70.22;101855.41;5047951;28;20120;-76
2022/06/03 03:35:17;;;;;;;8.25;7.25;;;;;;;11.95;70.09;101853.25;5054830;28;20029;-76
2022/06/03 03:37:43;;;;;;;9.00;7.65;;;;;;;11.98;70.08;101855.63;5061724;28;20089;-76
2022/06/03 03:40:11;;;;;;;8.75;7.88;;;;;;;11.84;70.93;101850.59;5058459;28;20041;-76
2022/06/03 03:42:42;;;;;;;9.57;7.88;;;;;;;11.88;70.63;101844.25;5057692;28;20483;-77
2022/06/03 03:45:35;;;;;;;8.15;7.35;;;;;;;11.87;71.46;101832.16;5065780;28;20021;-76
2022/06/03 03:48:34;;;;;;;8.55;7.50;;;;;;;11.89;71.27;101825.09;5062954;28;20112;-76
2022/06/03 03:51:00;;;;;;;8.35;7.55;;;;;;;11.76;71.46;101819.09;5052721;28;20047;-75
2022/06/03 03:53:44;;;;;;;8.93;8.02;;;;;;;11.84;70.76;101827.19;5061653;28;20402;-76
2022/06/03 03:56:20;;;;;;;8.77;7.55;;;;;;;11.77;70.51;101831.13;5058508;28;20036;-75
2022/06/03 03:59:07;;;;;;;8.40;7.57;;;;;;;11.74;70.67;101820.94;5052715;28;20459;-76
2022/06/03 04:02:05;;;;;;;8.55;7.45;;;;;;;11.80;71.04;101825.72;5037070;28;20098;-76
2022/06/03 04:04:49;;;;;;;8.57;7.68;;;;;;;11.70;71.37;101815.16;5060515;28;20016;-75
2022/06/03 04:07:37;;;;;;;10.73;8.02;;;;;;;11.70;71.24;101821.19;5057020;28;20036;-75
2022/06/03 04:10:22;;;;;;;9.68;8.05;;;;;;;11.61;72.13;101821.81;5046005;28;20048;-76
2022/06/03 04:13:09;;;;;;;8.93;7.90;;;;;;;11.60;71.68;101825.34;5063357;28;20036;-76
2022/06/03 04:15:45;;;;;;;9.05;8.07;;;;;;;11.51;72.45;101813.00;5055580;28;20123;-76
2022/06/03 04:18:41;;;;;;;8.98;8.00;;;;;;;11.66;71.55;101819.72;5045265;28;20090;-76
2022/06/03 04:21:36;;;;;;;8.65;7.85;;;;;;;11.56;72.58;101818.69;5061416;28;20056;-76
2022/06/03 04:24:46;;;;;;;9.45;7.78;;;;;;;11.62;71.67;101818.28;5060048;28;20070;-76
2022/06/03 04:27:40;;;;;;;9.07;8.15;;;;;;;11.61;71.81;101815.78;5063639;28;20527;-76
2022/06/03 04:30:43;;;;;;;9.15;8.20;;;;;;;11.56;72.63;101810.91;5051038;28;20031;-76
2022/06/03 04:33:30;;;;;;;9.38;8.45;;;;;;;11.60;71.81;101814.97;5066480;28;20118;-76
2022/06/03 04:36:26;;;;;;;9.50;8.60;;;;;;;11.56;71.65;101808.31;5066556;28;20043;-76
2022/06/03 04:39:18;;;;;;;8.60;7.70;;;;;;;11.60;72.50;101804.56;5066813;28;20027;-76
2022/06/03 04:42:19;;;;;;;9.60;8.60;;;;;;;11.60;72.12;101809.75;5060153;28;20037;-76
2022/06/03 04:44:59;;;;;;;8.93;8.02;;;;;;;11.59;71.86;101812.47;5058980;28;20032;-77
2022/06/03 04:47:31;;;;;;;9.30;8.40;;;;;;;11.56;72.40;101813.50;5048279;28;20372;-75
2022/06/03 04:50:17;;;;;;;9.45;8.43;;;;;;;11.58;71.97;101810.78;5065675;28;20032;-75
2022/06/03 04:52:43;;;;;;;10.00;8.40;;;;;;;11.63;72.47;101814.72;5061611;28;20078;-75
2022/06/03 04:55:26;;;;;;;9.45;8.48;;;;;;;11.70;71.50;101808.19;5067156;28;20488;-75
2022/06/03 04:58:29;;;;;;;10.13;9.05;;;;;;;11.67;72.46;101810.97;5066434;28;20040;-75
2022/06/03 05:01:28;;;;;;;9.30;8.40;;;;;;;11.66;71.74;101804.13;5061581;28;20079;-74
2022/06/03 05:04:47;;;;;;;10.25;8.50;;;;;;;11.75;71.51;101812.19;5048030;28;20032;-75
2022/06/03 05:07:15;;;;;;;9.57;8.68;;;;;;;11.74;72.13;101810.56;5064098;28;20032;-75
2022/06/03 05:10:16;;;;;;;9.45;8.48;;;;;;;11.83;71.42;101815.13;5045923;28;20477;-78
2022/06/03 05:13:00;;;;;;;9.65;8.57;;;;;;;11.83;71.54;101813.38;4984073;28;20070;-78
2022/06/03 05:15:47;;;;;;;9.55;8.55;;;;;;;11.78;71.65;101815.44;4983239;28;20046;-77
2022/06/03 05:18:37;;;;;;;9.45;8.55;;;;;;;11.82;71.76;101816.09;4985508;28;20537;-76
2022/06/03 05:21:38;;;;;;;9.82;8.20;;;;;;;11.81;71.75;101816.97;4984560;28;20038;-76
2022/06/03 05:24:24;;;;;;;9.65;8.65;;;;;;;11.86;71.84;101813.13;4980855;28;20041;-77
2022/06/03 05:27:04;;;;;;;9.95;8.88;;;;;;;11.92;71.10;101809.25;4983508;28;20085;-77
2022/06/03 05:30:03;;;;;;;9.63;8.55;;;;;;;11.94;71.22;101818.63;4985378;28;20041;-77
2022/06/03 05:33:01;;;;;;;9.48;8.57;;;;;;;12.00;70.99;101809.56;4983381;28;20034;-76
2022/06/03 05:35:44;;;;;;;9.45;8.35;;;;;;;12.10;71.37;101812.31;4983888;28;20038;-76
2022/06/03 05:38:34;;;;;;;9.40;8.38;;;;;;;12.10;71.11;101812.31;4985020;28;20590;-77
2022/06/03 05:40:59;;;;;;;9.27;8.38;;;;;;;12.18;70.87;101805.63;4984027;28;20082;-77
2022/06/03 05:43:43;;;;;;;9.50;8.50;;;;;;;12.25;70.74;101807.78;4979889;28;20081;-77
2022/06/03 05:46:16;;;;;;;9.65;8.65;;;;;;;12.37;70.73;101804.28;4999420;28;20068;-77
2022/06/03 05:49:11;;;;;;;10.38;8.90;;;;;;;12.36;70.92;101805.22;5056471;28;20111;-76
2022/06/03 05:52:08;;;;;;;9.10;8.30;;;;;;;12.48;70.29;101796.50;5063705;28;20047;-76
2022/06/03 05:54:49;;;;;;;9.30;8.30;;;;;;;12.55;69.93;101808.13;5064741;28;20035;-75
2022/06/03 05:57:26;;;;;;;9.07;8.18;;;;;;;12.62;69.73;101793.72;5052381;28;20029;-77
2022/06/03 06:00:26;;;;;;;10.18;8.63;;;;;;;12.62;69.67;101780.72;5055844;28;20460;-76
2022/06/03 06:03:15;;;;;;;10.07;8.40;;;;;;;12.74;69.89;101803.22;5063437;28;20469;-77
2022/06/03 06:06:15;;;;;;;9.38;8.45;;;;;;;12.89;68.42;101810.81;5061145;28;20500;-77
2022/06/03 06:08:58;;;;;;;10.60;8.65;;;;;;;12.88;67.74;101809.16;5062807;28;20036;-77
2022/06/03 06:11:35;;;;;;;9.07;8.18;;;;;;;12.95;68.18;101805.13;5060914;28;20020;-77
2022/06/03 06:14:03;;;;;;;9.43;8.43;;;;;;;13.00;67.55;101809.03;5044647;28;20032;-77
2022/06/03 06:16:41;;;;;;;9.40;8.50;;;;;;;13.07;67.70;101804.19;5049056;28;20033;-78
2022/06/03 06:19:10;;;;;;;;;;;;;;;13.18;67.74;101806.81;5053562;28;20057;-78
2022/06/03 06:22:16;;;;;;;9.25;8.15;;;;;;;13.27;67.61;101798.31;5054499;28;19908;-78
2022/06/03 06:25:12;;;;;;;9.05;8.15;;;;;;;13.39;67.73;101813.94;5053028;28;20020;-78
2022/06/03 06:28:00;;;;;;;8.70;7.85;;;;;;;13.50;67.22;101806.13;5056412;28;20034;-78
2022/06/03 06:30:44;;;;;;;;;;;;;;;13.58;67.14;101819.38;5062142;28;20511;-78
2022/06/03 06:33:22;;;;;;;9.00;8.10;;;;;;;13.62;65.85;101814.75;5064934;28;19924;-78
2022/06/03 06:36:09;;;;;;;9.38;8.07;;;;;;;13.67;66.64;101813.44;5065313;28;20036;-77
2022/06/03 06:38:56;;;;;;;9.57;8.67;;;;;;;13.72;66.96;101805.28;5059928;28;20032;-79
2022/06/03 06:41:53;;;;;;;9.23;8.32;;;;;;;13.80;66.45;101806.31;5054922;28;20052;-78
2022/06/03 06:44:34;;;;;;;11.18;7.97;;;;;;;13.86;65.81;101817.19;5057572;28;20125;-78
2022/06/03 06:47:12;;;;;;;8.85;8.05;;;;;;;13.85;65.26;101811.16;5055925;28;20035;-77
2022/06/03 06:49:43;;;;;;;9.02;8.20;;;;;;;13.92;65.51;101806.28;5059389;28;20346;-79
2022/06/03 06:52:23;;;;;;;11.30;8.68;;;;;;;14.08;65.14;101804.94;5044313;28;20036;-78
2022/06/03 06:55:09;;;;;;;9.40;8.50;;;;;;;14.08;65.27;101797.09;5052526;28;20028;-78
2022/06/03 06:57:47;;;;;;;10.85;8.25;;;;;;;14.26;65.32;101805.22;5061924;28;20032;-77
2022/06/03 07:00:27;;;;;;;9.47;8.00;;;;;;;14.37;66.09;101806.13;5059448;28;20093;-78
2022/06/03 07:03:08;;;;;;;9.45;8.15;;;;;;;14.41;65.02;101795.31;5062229;28;20032;-79
2022/06/03 07:05:39;;;;;;;9.68;8.70;;;;;;;14.48;64.95;101804.31;5057653;28;20119;-78
2022/06/03 07:08:10;;;;;;;9.93;8.25;;;;;;;14.61;64.70;101809.34;5057685;28;20028;-78
2022/06/03 07:10:53;;;;;;;9.20;8.30;;;;;;;14.72;64.14;101811.06;5055439;28;20035;-78
2022/06/03 07:13:37;;;;;;;9.02;8.18;;;;;;;14.77;63.55;101809.72;5061928;28;20086;-78
2022/06/03 07:16:10;;;;;;;9.43;8.43;;;;;;;14.90;63.61;101806.09;5047408;28;20031;-78
2022/06/03 07:22:07;;;;;;;9.32;8.18;;;;;;;15.10;63.26;101806.06;5065767;28;20491;-78
2022/06/03 07:24:39;;;;;;;8.95;7.82;;;;;;;15.08;62.06;101812.34;5026044;28;20062;-78
2022/06/03 07:27:36;;;;;;;8.68;7.78;;;;;;;15.12;62.56;101808.53;5066380;28;20113;-78
2022/06/03 07:30:10;;;;;;;8.60;7.80;;;;;;;15.26;62.62;101805.59;5059204;28;20063;-78
2022/06/03 07:32:44;;;;;;;9.52;8.20;;;;;;;15.35;62.68;101799.53;5057779;28;20067;-79
2022/06/03 07:35:23;;;;;;;8.95;8.13;;;;;;;15.44;62.15;101802.34;5056216;28;20054;-78
2022/06/03 07:37:48;;;;;;;9.10;7.80;;;;;;;15.55;61.49;101799.63;5068507;28;20487;-78
2022/06/03 07:40:34;;;;;;;8.25;6.93;;;;;;;15.52;60.61;101789.41;5063664;28;20048;-78
2022/06/03 07:43:10;;;;;;;8.52;7.60;;;;;;;15.72;61.48;101796.38;5060567;28;20107;-78
2022/06/03 07:45:45;;;;;;;9.27;7.45;;;;;;;15.71;59.78;101794.72;5067967;28;20063;-78
2022/06/03 07:48:24;;;;;;;8.20;7.38;;;;;;;15.77;60.28;101794.19;5062929;28;20040;-78
2022/06/03 07:51:31;;;;;;;9.07;7.55;;;;;;;15.97;61.11;101789.81;5068769;28;20544;-78
2022/06/03 07:54:11;;;;;;;8.77;7.38;;;;;;;16.17;61.26;101774.91;5062049;28;20059;-78
2022/06/03 07:56:38;;;;;;;8.85;7.95;;;;;;;16.35;61.20;101773.28;5066932;28;20020;-79
2022/06/03 07:59:12;;;;;;;8.80;7.93;;;;;;;16.46;60.21;101778.38;5068897;28;20104;-79
2022/06/03 08:01:42;;;;;;;9.80;8.65;;;;;;;16.53;60.65;101769.94;5066087;28;20055;-79
2022/06/03 08:04:24;;;;;;;8.93;7.60;;;;;;;16.48;58.01;101764.28;5045409;28;20098;-79
2022/06/03 08:12:30;;;;;;;9.68;7.40;;;;;;;17.01;60.28;101774.25;5064008;28;20047;-79
2022/06/03 08:14:57;;;;;;;8.75;7.85;;;;;;;17.09;59.85;101766.47;5067863;28;20067;-79
2022/06/03 08:17:24;;;;;;;9.43;8.40;;;;;;;17.13;59.30;101767.84;5062075;28;20548;-79
2022/06/03 08:19:50;;;;;;;9.10;7.70;;;;;;;17.33;59.90;101768.59;5064241;28;20032;-78
2022/06/03 08:22:22;;;;;;;8.13;7.32;;;;;;;17.29;57.72;101777.69;5055897;28;20029;-79
2022/06/03 08:24:55;;;;;;;8.25;7.30;;;;;;;17.26;56.90;101773.56;5059957;28;20029;-79
2022/06/03 08:27:27;;;;;;;9.10;7.65;;;;;;;17.38;57.54;101766.34;5059212;28;20028;-78
2022/06/03 08:30:00;;;;;;;9.07;7.80;;;;;;;17.53;57.78;101770.09;5048454;28;20119;-78
2022/06/03 08:32:34;;;;;;;8.40;6.95;;;;;;;17.60;57.57;101765.09;5045509;28;20128;-79
2022/06/03 08:35:04;;;;;;;13.63;8.57;;;;;;;17.66;57.93;101754.84;5066942;28;20033;-78
2022/06/03 08:37:35;;;;;;;12.85;11.55;;;;;;;17.75;57.53;101758.41;5063622;28;20465;-79
2022/06/03 08:40:16;;;;;;;7.95;7.15;;;;;;;17.87;58.14;101738.84;5048466;28;20041;-78
2022/06/03 08:42:54;;;;;;;8.20;7.35;;;;;;;18.02;56.52;101750.47;5058087;28;20028;-78
2022/06/03 08:45:31;;;;;;;9.57;6.90;;;;;;;18.14;56.10;101737.91;5066879;28;20021;-79
2022/06/03 08:48:03;;;;;;;8.35;6.78;;;;;;;18.26;55.61;101746.38;5062474;28;20036;-79
2022/06/03 08:50:47;;;;;;;7.80;7.00;;;;;;;18.35;56.16;101745.47;5066799;28;20043;-79
2022/06/03 08:53:25;;;;;;;11.43;7.75;;;;;;;18.52;56.13;101747.22;5056324;28;20040;-80
2022/06/03 08:55:55;;;;;;;10.90;6.95;;;;;;;18.57;56.63;101744.94;5056699;28;20021;-79
2022/06/03 08:58:21;;;;;;;10.15;7.95;;;;;;;18.60;55.60;101745.63;5066489;28;20078;-78
2022/06/03 09:01:02;;;;;;;9.18;7.90;;;;;;;18.77;56.99;101747.38;5067774;28;20064;-80
2022/06/03 09:03:31;;;;;;;11.05;7.70;;;;;;;18.76;55.59;101758.88;5048791;28;20024;-78
2022/06/03 09:06:44;;;;;;;10.38;7.05;;;;;;;19.07;56.59;101764.44;5066573;28;20085;-78
2022/06/03 09:09:35;;;;;;;8.73;6.82;;;;;;;19.18;55.84;101752.81;5041450;28;20032;-79
2022/06/03 09:12:17;;;;;;;8.38;7.55;;;;;;;19.15;54.57;101737.34;5063933;28;20040;-79
2022/06/03 09:14:46;;;;;;;8.40;7.45;;;;;;;19.08;54.02;101753.78;5054355;28;20020;-79
2022/06/03 09:17:24;;;;;;;10.48;7.00;;;;;;;19.14;54.69;101752.31;5061496;28;20083;-79
2022/06/03 09:19:51;;;;;;;7.60;6.80;;;;;;;19.20;52.51;101756.13;5060389;28;20115;-79
2022/06/03 09:22:23;;;;;;;7.60;6.35;;;;;;;19.24;51.55;101746.94;5065689;28;20046;-80
2022/06/03 09:24:49;;;;;;;7.45;5.75;;;;;;;19.48;53.23;101744.38;5061587;28;20065;-78
2022/06/03 09:27:20;;;;;;;9.27;7.07;;;;;;;19.43;50.35;101741.38;5059484;28;20470;-79
2022/06/03 09:29:54;;;;;;;5.80;4.57;;;;;;;19.50;50.18;101742.41;5066705;28;20051;-79
2022/06/03 09:32:21;;;;;;;5.97;4.57;;;;;;;19.78;50.83;101744.75;5059649;28;20029;-79
2022/06/03 09:34:50;;;;;;;6.00;4.03;;;;;;;19.59;47.90;101738.81;5064533;28;20036;-79
2022/06/03 09:37:21;;;;;;;5.45;3.80;;;;;;;19.65;48.09;101739.16;5066720;28;20419;-78
2022/06/03 09:39:50;;;;;;;5.40;4.00;;;;;;;19.83;49.26;101732.75;5061729;28;20771;-79
2022/06/03 09:42:19;;;;;;;5.70;4.40;;;;;;;19.91;49.12;101739.88;5066259;28;20035;-79
2022/06/03 09:44:48;;;;;;;7.47;5.40;;;;;;;20.08;49.62;101724.88;5065386;28;20035;-79
2022/06/03 09:47:22;;;;;;;4.85;4.13;;;;;;;19.99;47.56;101731.94;5066102;28;20158;-78
2022/06/03 09:49:50;;;;;;;4.65;3.60;;;;;;;20.24;47.93;101739.84;5064876;28;20385;-79
2022/06/03 09:52:21;;;;;;;5.55;3.70;;;;;;;20.36;49.33;101733.25;5064930;28;20024;-78
2022/06/03 09:54:47;;;;;;;6.00;4.40;;;;;;;20.38;48.18;101728.63;5064203;28;20063;-78
2022/06/03 09:57:26;;;;;;;5.82;4.68;;;;;;;20.57;48.29;101730.91;5052008;28;20344;-78
2022/06/03 09:59:59;;;;;;;6.22;4.30;;;;;;;20.55;47.52;101732.09;5061548;28;20040;-78
2022/06/03 10:02:26;;;;;;;5.60;4.30;;;;;;;20.63;47.15;101714.44;5060087;28;20032;-78
2022/06/03 10:04:53;;;;;;;5.13;3.90;;;;;;;20.73;46.47;101723.97;5049994;28;20373;-78
2022/06/03 10:07:18;;;;;;;5.53;4.03;;;;;;;20.82;46.94;101722.97;5058159;28;20483;-79
2022/06/03 10:12:56;;;;;;;5.63;4.10;;;;;;;20.95;45.12;101723.22;5060706;28;20071;-78
2022/06/03 10:15:43;;;;;;;4.32;3.10;;;;;;;21.07;44.23;101727.13;5059048;28;20029;-78
2022/06/03 10:18:34;;;;;;;4.28;2.65;;;;;;;21.27;45.68;101721.41;5064231;28;20039;-79
2022/06/03 10:21:19;;;;;;;5.72;2.88;;;;;;;21.43;46.27;101718.72;5057906;28;20071;-78
2022/06/03 10:23:56;;;;;;;4.50;3.13;;;;;;;21.42;44.25;101715.25;5045946;28;20032;-79
2022/06/03 10:26:33;;;;;;;3.28;2.70;;;;;;;21.26;42.21;101715.31;5060998;28;20162;-79
2022/06/03 10:29:10;;;;;;;4.70;2.45;;;;;;;21.23;41.73;101697.19;5052798;28;20072;-78
2022/06/03 10:31:36;;;;;;;3.25;2.70;;;;;;;21.18;40.63;101703.00;5056066;28;20041;-78
2022/06/03 10:34:08;;;;;;;4.35;2.60;;;;;;;21.41;41.72;101704.88;5060734;28;20033;-78
2022/06/03 10:36:40;;;;;;;4.93;2.50;;;;;;;21.35;41.30;101695.84;5057391;28;20488;-78
2022/06/03 10:39:09;;;;;;;3.55;2.05;;;;;;;21.54;40.29;101685.81;5062631;28;20028;-79
2022/06/03 10:41:40;;;;;;;3.33;2.05;;;;;;;21.64;40.80;101684.59;5064489;28;20051;-78
2022/06/03 10:44:21;;;;;;;2.63;2.30;;;;;;;21.83;41.79;101690.38;5063005;28;20067;-79
2022/06/03 10:47:11;;;;;;;3.10;2.10;;;;;;;21.76;40.63;101695.53;5059937;28;20067;-79
2022/06/03 10:49:51;;;;;;;4.32;2.60;;;;;;;21.87;40.61;101699.59;5061555;28;20039;-78
2022/06/03 11:01:23;;;;;;;3.30;2.60;;;;;;;21.74;40.37;101677.25;5051187;28;20031;-77
2022/06/03 11:03:51;;;;;;;3.60;2.20;;;;;;;21.90;39.42;101670.16;5055770;28;20437;-77
2022/06/03 11:06:22;;;;;;;3.60;2.40;;;;;;;21.90;37.66;101680.72;5052629;28;20563;-76
2022/06/03 11:08:53;;;;;;;4.22;2.30;;;;;;;22.03;39.56;101683.59;5044686;28;20031;-77
2022/06/03 11:11:43;;;;;;;4.03;2.63;;;;;;;22.03;41.19;101670.38;5057305;28;20025;-79
2022/06/03 11:14:23;;;;;;;4.55;2.55;;;;;;;22.13;40.58;101676.25;5057715;28;20472;-79
2022/06/03 11:16:56;;;;;;;4.05;2.63;;;;;;;22.33;39.97;101681.00;5064467;28;20016;-79
2022/06/03 11:19:21;;;;;;;4.90;3.10;;;;;;;22.25;38.60;101680.09;5064595;28;20024;-79
2022/06/03 11:21:47;;;;;;;4.15;2.90;;;;;;;22.50;40.01;101682.47;5064883;28;20020;-79
2022/06/03 11:24:13;;;;;;;4.18;3.40;;;;;;;22.65;38.71;101675.38;5048134;28;20456;-79
2022/06/03 11:26:43;;;;;;;4.32;2.65;;;;;;;22.61;38.27;101668.78;5064803;28;20024;-79
2022/06/03 11:29:25;;;;;;;4.65;2.90;;;;;;;22.46;36.71;101667.97;5058689;28;20077;-78
2022/06/03 11:31:52;;;;;;;5.28;3.40;;;;;;;22.63;36.99;101661.50;5056367;28;20036;-79
2022/06/03 11:34:26;;;;;;;4.07;2.85;;;;;;;22.66;38.13;101668.25;5051883;28;20039;-78
2022/06/03 11:37:01;;;;;;;4.97;2.90;;;;;;;22.62;37.31;101670.44;5065793;28;20036;-79
2022/06/03 11:39:36;;;;;;;3.08;2.60;;;;;;;22.80;36.19;101662.91;5053379;28;20038;-78
2022/06/03 11:42:15;;;;;;;3.38;2.42;;;;;;;22.73;37.38;101656.75;5058664;28;20036;-78
2022/06/03 11:44:48;;;;;;;5.88;2.67;;;;;;;22.70;36.55;101661.56;5036284;28;20039;-78
2022/06/03 11:47:38;;;;;;;4.45;2.83;;;;;;;22.89;38.16;101662.88;5060527;28;20029;-79
2022/06/03 11:50:08;;;;;;;3.80;2.20;;;;;;;22.90;38.10;101651.28;5064587;28;20036;-79
2022/06/03 11:52:33;;;;;;;4.55;2.90;;;;;;;22.94;36.36;101648.06;5062681;28;20463;-78
2022/06/03 11:54:59;;;;;;;4.15;2.40;;;;;;;23.14;37.14;101648.28;5063355;28;20590;-79
2022/06/03 11:57:25;;;;;;;3.50;2.15;;;;;;;23.15;37.09;101644.63;5064005;28;20029;-78
2022/06/03 12:00:11;;;;;;;3.38;2.67;;;;;;;23.20;35.90;101654.66;5065097;28;20040;-79
2022/06/03 12:02:51;;;;;;;4.88;2.60;;;;;;;23.20;37.01;101652.81;5054134;28;20037;-77
2022/06/03 12:05:27;;;;;;;5.45;2.63;;;;;;;23.24;36.48;101651.44;5059456;28;20067;-75
2022/06/03 12:08:01;;;;;;;4.15;2.30;;;;;;;23.29;36.48;101651.69;5067019;28;20052;-76
2022/06/03 12:10:45;;;;;;;3.75;2.10;;;;;;;23.33;36.58;101652.94;5050137;28;20095;-77
2022/06/03 12:13:30;;;;;;;3.60;2.50;;;;;;;23.47;37.07;101647.78;5066423;28;20024;-76
2022/06/03 12:15:58;;;;;;;7.20;2.30;;;;;;;23.55;37.08;101647.63;5068718;28;20032;-76
2022/06/03 12:18:37;;;;;;;9.77;3.47;;;;;;;23.54;35.55;101653.94;5049717;28;20055;-76
2022/06/03 12:21:13;;;;;;;3.63;2.72;;;;;;;23.51;36.61;101638.44;5056172;28;20025;-77
2022/06/03 12:23:39;;;;;;;5.60;2.30;;;;;;;23.69;35.87;101646.78;5068472;28;20095;-77
2022/06/03 12:26:06;;;;;;;3.45;2.50;;;;;;;23.89;36.81;101651.41;5066322;28;20154;-77
2022/06/03 12:28:45;;;;;;;2.50;1.85;;;;;;;23.85;36.56;101641.19;5065558;28;20032;-76
2022/06/03 12:31:19;;;;;;;2.22;1.85;;;;;;;23.80;36.41;101645.44;5068231;28;20069;-77
2022/06/03 12:33:56;;;;;;;2.95;2.30;;;;;;;23.85;35.66;101646.47;5068859;28;20029;-77
2022/06/03 12:36:33;;;;;;;2.70;2.03;;;;;;;23.79;35.71;101651.72;5061936;28;20115;-76
2022/06/03 12:39:08;;;;;;;3.67;2.37;;;;;;;23.70;34.62;101648.41;5063176;28;20480;-77
2022/06/03 12:41:45;;;;;;;5.00;2.10;;;;;;;23.71;35.61;101639.47;5065825;28;20158;-77
2022/06/03 12:44:23;;;;;;;2.65;2.20;;;;;;;23.62;35.98;101640.59;5061759;28;20037;-77
2022/06/03 12:46:49;;;;;;;4.88;2.17;;;;;;;23.68;37.26;101642.47;5062451;28;20020;-77
2022/06/03 12:49:23;;;;;;;3.35;2.00;;;;;;;23.70;36.24;101637.81;5064222;28;20043;-76
2022/06/03 12:52:07;;;;;;;2.50;1.40;;;;;;;23.84;36.95;101644.03;5061398;28;20501;-79
2022/06/03 12:54:37;;;;;;;4.10;2.13;;;;;;;23.93;35.02;101631.47;5065945;28;20488;-79